KMFD/MFD METAR and TAF weather

Enter ICAO airport designator
Station Type Date Time Source
KMFD METAR 2022/06/27 06:52 UTC NOAA

KMFD 270652Z AUTO 31009KT 10SM CLR 18/10 A3007 RMK AO2 SLP176 T01780100 $


Station Type Date Time Source
KMFD Decoded METAR 2022/06/27 06:52 UTC NOAA

LAHM MUNICIPAL AIRPORT, OH, United States (KMFD) 40-49N 082-31W 395M
Jun 27, 2022 - 02:52 AM EDT / 2022.06.27 0652 UTC
Wind: from the NW (310 degrees) at 10 MPH (9 KT):0
Visibility: 10 mile(s):0
Sky conditions: clear
Temperature: 64.0 F (17.8 C)
Dew Point: 50.0 F (10.0 C)
Relative Humidity: 60%
Pressure (altimeter): 30.07 in. Hg (1018 hPa)
ob: KMFD 270652Z AUTO 31009KT 10SM CLR 18/10 A3007 RMK AO2 SLP176 T01780100
cycle: 7

Station Type Date Time Source
KMFD TAF 2022/06/27 06:36 UTC NOAA

TAF KMFD 270533Z 2706/2806 30006KT P6SM SKC
FM271500 31010G18KT P6SM SCT045
FM280200 32003KT P6SM SKC

Example: see airport list